Time;durP1;ratioP1;P1;durP2;ratioP2;P2;SDS_P1;SDS_P2;PMS_P1;PMS_P2;Temp;Humidity;BMP_temperature;BMP_pressure;BME280_temperature;BME280_humidity;BME280_pressure;Samples;Min_cycle;Max_cycle;Signal;HPM_P1;HPM_P2
2024/02/20 00:09:29;;;;;;;;;;;7.40;99.90;;;;;;6714440;88;20064;-78
2024/02/20 00:19:29;;;;;;;;;;;7.30;99.90;;;;;;6714485;88;20067;-78
2024/02/20 00:29:29;;;;;;;;;;;7.20;99.90;;;;;;6717773;88;20831;-79
2024/02/20 00:39:31;;;;;;;;;;;7.10;99.90;;;;;;6713917;88;20055;-79
2024/02/20 00:49:32;;;;;;;;;;;7.10;99.90;;;;;;6709644;88;20130;-78
2024/02/20 00:59:32;;;;;;;;;;;6.90;99.90;;;;;;6707326;88;20056;-78
2024/02/20 01:09:33;;;;;;;;;;;6.90;99.90;;;;;;6713423;88;20058;-77
2024/02/20 01:19:33;;;;;;;;;;;7.10;99.90;;;;;;6708272;88;20051;-77
2024/02/20 01:29:34;;;;;;;;;;;7.10;99.90;;;;;;6710221;88;20144;-77
2024/02/20 01:39:34;;;;;;;;;;;6.90;99.90;;;;;;6709934;88;20055;-78
2024/02/20 01:49:35;;;;;;;;;;;6.70;99.90;;;;;;6710286;88;20039;-77
2024/02/20 01:59:36;;;;;;;;;;;6.60;99.90;;;;;;6725258;88;20098;-78
2024/02/20 02:09:37;;;;;;;;;;;6.60;99.90;;;;;;6713783;88;20099;-78
2024/02/20 02:19:37;;;;;;;;;;;6.60;99.90;;;;;;6720118;88;20092;-78
2024/02/20 02:29:38;;;;;;;;;;;6.70;99.90;;;;;;6708935;88;20172;-78
2024/02/20 02:39:38;;;;;;;;;;;6.70;99.90;;;;;;6711481;88;20083;-78
2024/02/20 02:49:39;;;;;;;;;;;6.70;99.90;;;;;;6710421;88;20056;-78
2024/02/20 02:59:39;;;;;;;;;;;6.60;99.90;;;;;;6720174;88;20054;-78
2024/02/20 03:09:40;;;;;;;;;;;6.60;99.90;;;;;;6722144;88;20056;-77
2024/02/20 03:19:40;;;;;;;;;;;6.50;99.90;;;;;;6719862;88;20164;-78
2024/02/20 03:29:41;;;;;;;;;;;6.50;99.90;;;;;;6709709;88;20056;-78
2024/02/20 03:39:42;;;;;;;;;;;6.70;99.90;;;;;;6717887;88;20070;-78
2024/02/20 03:49:43;;;;;;;;;;;6.80;99.90;;;;;;6723147;88;20055;-78
2024/02/20 03:59:43;;;;;;;;;;;6.80;99.90;;;;;;6708779;88;20059;-78
2024/02/20 04:09:44;;;;;;;;;;;6.90;99.90;;;;;;6711158;88;20858;-78
2024/02/20 04:19:44;;;;;;;;;;;6.90;99.90;;;;;;6723507;88;20530;-78
2024/02/20 04:29:45;;;;;;;;;;;6.90;99.90;;;;;;6723991;88;20053;-78
2024/02/20 04:39:45;;;;;;;;;;;6.90;99.90;;;;;;6725001;88;20079;-78
2024/02/20 04:49:46;;;;;;;;;;;6.90;99.90;;;;;;6713045;88;20075;-78
2024/02/20 04:59:47;;;;;;;;;;;6.90;99.90;;;;;;6707516;88;20052;-78
2024/02/20 05:09:48;;;;;;;;;;;6.90;99.90;;;;;;6709621;88;20063;-78
2024/02/20 05:19:49;;;;;;;;;;;6.80;99.90;;;;;;6722803;88;20181;-78
2024/02/20 05:29:49;;;;;;;;;;;6.90;99.90;;;;;;6709211;88;20076;-78
2024/02/20 05:39:50;;;;;;;;;;;6.80;99.90;;;;;;6708126;88;20063;-78
2024/02/20 05:49:50;;;;;;;;;;;6.90;99.90;;;;;;6711236;88;20554;-77
2024/02/20 05:59:51;;;;;;;;;;;6.90;99.90;;;;;;6718412;88;20064;-79
2024/02/20 06:09:51;;;;;;;;;;;6.70;99.90;;;;;;6712139;88;20051;-78
2024/02/20 06:19:52;;;;;;;;;;;6.60;99.90;;;;;;6711148;88;20047;-80
2024/02/20 06:29:52;;;;;;;;;;;6.60;99.90;;;;;;6716943;88;20051;-79
2024/02/20 06:49:56;;;;;;;;;;;6.60;99.90;;;;;;6721340;88;20121;-77
2024/02/20 06:59:57;;;;;;;;;;;6.50;99.90;;;;;;6712613;88;20589;-79
2024/02/20 07:09:57;;;;;;;;;;;6.60;99.90;;;;;;6720349;88;20060;-79
2024/02/20 07:19:58;;;;;;;;;;;6.60;99.90;;;;;;6694146;88;20101;-79
2024/02/20 07:29:58;;;;;;;;;;;6.60;99.90;;;;;;6695376;88;20067;-79
2024/02/20 07:39:58;;;;;;;;;;;6.70;99.90;;;;;;6693622;88;20073;-80
2024/02/20 07:49:59;;;;;;;;;;;6.80;99.90;;;;;;6624764;89;20086;-80
2024/02/20 08:00:01;;;;;;;;;;;7.00;99.90;;;;;;6722069;88;20073;-80
2024/02/20 08:10:01;;;;;;;;;;;7.30;99.90;;;;;;6682165;88;20505;-79
2024/02/20 08:20:05;;;;;;;;;;;7.40;99.90;;;;;;6655783;89;20179;-79
2024/02/20 08:30:07;;;;;;;;;;;7.70;99.90;;;;;;6639363;89;20633;-79
2024/02/20 08:40:07;;;;;;;;;;;7.90;99.90;;;;;;6639957;89;20149;-79
2024/02/20 08:50:08;;;;;;;;;;;8.20;99.90;;;;;;6639782;88;20084;-79
2024/02/20 09:00:11;;;;;;;;;;;8.40;99.90;;;;;;6640044;88;20057;-80
2024/02/20 09:10:12;;;;;;;;;;;8.70;99.90;;;;;;6623020;89;20058;-80
2024/02/20 09:20:12;;;;;;;;;;;9.10;99.90;;;;;;6625547;88;20481;-80
2024/02/20 09:30:13;;;;;;;;;;;9.30;99.90;;;;;;6623124;89;20053;-80
2024/02/20 09:40:16;;;;;;;;;;;9.60;99.90;;;;;;6625196;89;20096;-78
2024/02/20 09:50:17;;;;;;;;;;;10.10;99.90;;;;;;6642611;88;20115;-79
2024/02/20 10:00:18;;;;;;;;;;;10.00;99.90;;;;;;6625840;89;20090;-79
2024/02/20 10:10:18;;;;;;;;;;;10.20;99.90;;;;;;6626473;89;20197;-80
2024/02/20 10:20:19;;;;;;;;;;;10.50;99.90;;;;;;6628257;89;20070;-78
2024/02/20 10:30:19;;;;;;;;;;;10.70;99.90;;;;;;6624768;89;20090;-79
2024/02/20 10:40:20;;;;;;;;;;;10.90;99.90;;;;;;6625165;89;20134;-85
2024/02/20 10:50:20;;;;;;;;;;;10.80;99.90;;;;;;6623900;89;20079;-80
2024/02/20 11:00:21;;;;;;;;;;;10.70;99.90;;;;;;6623947;89;20138;-80
2024/02/20 11:10:23;;;;;;;;;;;10.80;99.90;;;;;;6626627;89;20066;-80
2024/02/20 11:20:24;;;;;;;;;;;10.90;99.90;;;;;;6625082;89;20068;-80
2024/02/20 11:30:25;;;;;;;;;;;10.90;99.90;;;;;;6624629;89;20066;-80
2024/02/20 11:40:27;;;;;;;;;;;10.90;99.90;;;;;;6624094;89;20510;-79
2024/02/20 11:50:28;;;;;;;;;;;10.80;99.90;;;;;;6624677;88;20091;-81
2024/02/20 12:00:31;;;;;;;;;;;11.00;99.90;;;;;;6638804;88;20113;-80
2024/02/20 12:10:35;;;;;;;;;;;11.10;99.90;;;;;;6624369;89;20086;-80
2024/02/20 12:20:36;;;;;;;;;;;11.30;99.90;;;;;;6626448;89;20193;-81
2024/02/20 12:30:36;;;;;;;;;;;11.50;99.90;;;;;;6623273;89;20091;-80
2024/02/20 12:40:37;;;;;;;;;;;11.90;99.90;;;;;;6629430;77;20099;-78
2024/02/20 12:50:37;;;;;;;;;;;12.20;99.90;;;;;;6650760;88;20083;-77
2024/02/20 13:00:38;;;;;;;;;;;12.10;99.90;;;;;;6640956;88;20069;-79
2024/02/20 13:10:39;;;;;;;;;;;12.10;99.90;;;;;;6664331;88;20047;-79
2024/02/20 13:20:40;;;;;;;;;;;12.20;99.90;;;;;;6655579;88;20079;-79
2024/02/20 13:30:42;;;;;;;;;;;12.40;99.90;;;;;;6646618;88;20058;-79
2024/02/20 13:40:42;;;;;;;;;;;12.60;99.90;;;;;;6658042;88;20219;-80
2024/02/20 13:50:43;;;;;;;;;;;12.60;99.90;;;;;;6689427;88;20444;-80
2024/02/20 14:00:44;;;;;;;;;;;12.60;99.90;;;;;;6654661;88;20071;-79
2024/02/20 14:10:45;;;;;;;;;;;12.50;99.90;;;;;;6654229;88;20633;-80
2024/02/20 14:20:45;;;;;;;;;;;12.80;99.90;;;;;;6659991;88;20059;-79
2024/02/20 14:30:46;;;;;;;;;;;13.10;99.90;;;;;;6668995;88;20111;-79
2024/02/20 14:40:48;;;;;;;;;;;12.90;99.90;;;;;;6667321;88;20107;-79
2024/02/20 14:50:48;;;;;;;;;;;13.00;99.90;;;;;;6669532;88;20051;-79
2024/02/20 15:00:49;;;;;;;;;;;13.10;99.90;;;;;;6679797;88;20085;-80
2024/02/20 15:10:49;;;;;;;;;;;12.60;99.90;;;;;;6669611;88;20095;-79
2024/02/20 15:20:50;;;;;;;;;;;12.40;99.90;;;;;;6657258;88;20198;-80
2024/02/20 15:30:50;;;;;;;;;;;12.20;99.90;;;;;;6665392;88;20055;-79
2024/02/20 15:40:51;;;;;;;;;;;12.10;99.90;;;;;;6653509;88;20066;-79
2024/02/20 15:50:52;;;;;;;;;;;12.00;99.90;;;;;;6673324;88;20080;-79
2024/02/20 16:00:52;;;;;;;;;;;11.90;99.90;;;;;;6645928;88;20131;-80
2024/02/20 16:10:59;;;;;;;;;;;11.70;99.90;;;;;;6648041;88;20288;-81
2024/02/20 16:21:00;;;;;;;;;;;11.60;99.90;;;;;;6715824;88;20079;-79
2024/02/20 16:31:00;;;;;;;;;;;11.40;99.90;;;;;;6721858;88;20061;-81
2024/02/20 16:41:01;;;;;;;;;;;11.30;99.90;;;;;;6725693;88;20506;-80
2024/02/20 16:51:02;;;;;;;;;;;11.10;99.90;;;;;;6728448;88;20034;-80
2024/02/20 17:01:03;;;;;;;;;;;10.90;99.90;;;;;;6646022;88;20197;-81
2024/02/20 17:11:03;;;;;;;;;;;10.50;99.90;;;;;;6661233;88;20114;-78
2024/02/20 17:21:04;;;;;;;;;;;10.30;99.90;;;;;;6649379;89;20078;-78
2024/02/20 17:31:04;;;;;;;;;;;10.10;99.90;;;;;;6635095;88;20091;-78
2024/02/20 17:41:05;;;;;;;;;;;9.70;99.90;;;;;;6690040;88;20070;-79
2024/02/20 17:51:05;;;;;;;;;;;9.70;99.90;;;;;;6654361;88;20070;-77
2024/02/20 18:01:06;;;;;;;;;;;9.60;99.90;;;;;;6639440;88;20071;-78
2024/02/20 18:11:06;;;;;;;;;;;9.50;99.90;;;;;;6634357;88;20063;-77
2024/02/20 18:21:07;;;;;;;;;;;9.50;99.90;;;;;;6648916;88;20121;-77
2024/02/20 18:31:07;;;;;;;;;;;9.20;99.90;;;;;;6645907;88;20070;-78
2024/02/20 18:41:09;;;;;;;;;;;9.20;99.90;;;;;;6636930;88;20166;-78
2024/02/20 19:01:53;;;;;;;;;;;8.90;99.90;;;;;;6635825;88;20066;-80
2024/02/20 19:11:53;;;;;;;;;;;9.00;99.90;;;;;;6637897;89;20204;-81
2024/02/20 19:21:54;;;;;;;;;;;8.80;99.90;;;;;;6660968;88;20062;-80
2024/02/20 19:31:55;;;;;;;;;;;8.70;99.90;;;;;;6651284;88;20070;-81
2024/02/20 19:41:55;;;;;;;;;;;8.80;99.90;;;;;;6642248;88;20533;-80
2024/02/20 19:51:55;;;;;;;;;;;8.70;99.90;;;;;;6646079;88;20072;-78
2024/02/20 20:01:56;;;;;;;;;;;8.60;99.90;;;;;;6629196;88;20269;-80
2024/02/20 20:11:56;;;;;;;;;;;8.60;99.90;;;;;;6653083;88;20119;-82
2024/02/20 20:21:57;;;;;;;;;;;8.70;99.90;;;;;;6659659;88;20115;-80
2024/02/20 20:31:57;;;;;;;;;;;8.70;99.90;;;;;;6646663;89;20065;-80
2024/02/20 20:41:58;;;;;;;;;;;8.70;99.90;;;;;;6648914;88;20073;-81
2024/02/20 20:51:58;;;;;;;;;;;8.60;99.90;;;;;;6645883;89;20070;-81
2024/02/20 21:01:59;;;;;;;;;;;8.70;99.90;;;;;;6652588;89;20105;-81
2024/02/20 21:11:59;;;;;;;;;;;8.70;99.90;;;;;;6662447;89;20625;-80
2024/02/20 21:22:00;;;;;;;;;;;8.70;99.90;;;;;;6663102;89;20146;-80
2024/02/20 21:32:00;;;;;;;;;;;8.80;99.90;;;;;;6656418;89;20058;-80
2024/02/20 21:42:01;;;;;;;;;;;8.90;99.90;;;;;;6645482;89;20070;-79
2024/02/20 21:52:01;;;;;;;;;;;8.90;99.90;;;;;;6648956;89;20092;-80
2024/02/20 22:02:02;;;;;;;;;;;8.80;99.90;;;;;;6644674;89;20058;-79
2024/02/20 22:12:03;;;;;;;;;;;8.90;99.90;;;;;;6644900;89;20069;-79
2024/02/20 22:22:03;;;;;;;;;;;9.00;99.90;;;;;;6642942;89;20065;-79
2024/02/20 22:32:04;;;;;;;;;;;9.00;99.90;;;;;;6635337;88;20076;-79
2024/02/20 22:42:04;;;;;;;;;;;9.00;99.90;;;;;;6656453;89;20054;-79
2024/02/20 22:52:04;;;;;;;;;;;8.90;99.90;;;;;;6649110;88;20071;-79
2024/02/20 23:02:05;;;;;;;;;;;8.90;99.90;;;;;;6640611;88;20079;-79
2024/02/20 23:12:14;;;;;;;;;;;8.80;99.90;;;;;;6697927;88;20062;-79
2024/02/20 23:22:15;;;;;;;;;;;8.90;99.90;;;;;;6681120;88;20079;-80
2024/02/20 23:32:15;;;;;;;;;;;8.90;99.90;;;;;;6648930;89;20187;-79
2024/02/20 23:42:16;;;;;;;;;;;9.00;99.90;;;;;;6719188;88;20225;-79
2024/02/20 23:52:16;;;;;;;;;;;9.00;99.90;;;;;;6633902;88;20083;-80
